»·PEaware :: N475RS KSAN-KVNY

N475RS :: KSAN-KVNY

FLIGHT INFORMATION

Flight Status: Arrived
Operator: Privately registered:
United States
More flights under this callsign
Pilot: Aker J. (16898)
Aircraft: CESSNA 550 CITATION 2/S2/BRAVO
(C550)
More flights by this aircraft type
Origin: KSAN San Diego Intl-Lindbergh
United States
Destination: KVNY Van Nuys
United States
More flights between these airports :: More routes between these airports
Route: +PEBLE6 SLI V23 LAX LAX320 CANOG
File this flight plan on PilotEdge
Remarks:
Altitude:
(Current/Filed)
26,000ft
Speed:
(Current/Filed)
350kts
Departed: 23-Dec-17 09:47 PM
Arrived: 23-Dec-17 10:32 PM
Distance/Time
Traveled:
109nm/0:45
Distance/Time
To Go:
Arrived

Flight Plot

Page will automatically refresh every two minutes.

Flight plan parsing failed; only flown route is shown


Map Options




Map Legend


Flown Route
Filed Route
Departure Airport
Arrival Airport
Navaid (VOR, NDB)
Fix

Horizontal Profiles

Position Reports

Time Latitude Longitude Heading Altitude Ground
Speed
23-Dec-17 21:23 32.732722 -117.197045 87 19ft 0kts
23-Dec-17 21:24 32.732722 -117.197045 87 19ft 0kts
23-Dec-17 21:25 32.732722 -117.197045 87 19ft 0kts
23-Dec-17 21:26 32.732722 -117.197044 87 19ft 0kts
23-Dec-17 21:27 32.732722 -117.197043 87 19ft 0kts
23-Dec-17 21:28 32.732722 -117.197043 87 19ft 0kts
23-Dec-17 21:29 32.732744 -117.196210 93 19ft 0kts
23-Dec-17 21:30 32.732744 -117.196209 93 19ft 0kts
23-Dec-17 21:31 32.732744 -117.196209 93 19ft 0kts
23-Dec-17 21:32 32.732744 -117.196209 93 19ft 0kts
23-Dec-17 21:33 32.732744 -117.196209 93 19ft 0kts
23-Dec-17 21:34 32.732744 -117.196209 93 19ft 0kts
23-Dec-17 21:35 32.732744 -117.196209 93 19ft 0kts
23-Dec-17 21:36 32.732744 -117.196209 93 19ft 0kts
23-Dec-17 21:37 32.732744 -117.196209 93 19ft 0kts
23-Dec-17 21:38 32.732744 -117.196209 93 19ft 0kts
23-Dec-17 21:39 32.732744 -117.196209 93 19ft 0kts
23-Dec-17 21:40 32.732744 -117.196209 93 19ft 0kts
23-Dec-17 21:41 32.732744 -117.196209 93 19ft 0kts
23-Dec-17 21:42 32.732744 -117.196209 93 19ft 0kts
23-Dec-17 21:43 32.732744 -117.196209 93 19ft 0kts
23-Dec-17 21:44 32.732744 -117.196209 93 19ft 0kts
23-Dec-17 21:45 32.732744 -117.196209 93 19ft 0kts
23-Dec-17 21:46 32.733368 -117.194541 20 19ft 9kts
23-Dec-17 21:47 32.733391 -117.192944 106 19ft 16kts
23-Dec-17 21:48 32.732084 -117.187304 104 19ft 20kts
23-Dec-17 21:49 32.731162 -117.183403 103 19ft 19kts
23-Dec-17 21:50 32.730623 -117.181181 105 19ft 11kts
23-Dec-17 21:51 32.729777 -117.177662 107 19ft 22kts
23-Dec-17 21:52 32.730024 -117.175624 21 19ft 8kts
23-Dec-17 21:53 32.733150 -117.187172 286 19ft 76kts
23-Dec-17 21:54 32.748278 -117.226771 304 1249ft 161kts
23-Dec-17 21:55 32.771989 -117.265727 307 4024ft 179kts
23-Dec-17 21:56 32.800064 -117.314155 304 5495ft 192kts
23-Dec-17 21:57 32.832147 -117.367215 313 6756ft 204kts
23-Dec-17 21:58 32.854532 -117.386896 329 6837ft 207kts
23-Dec-17 21:59 32.904229 -117.424620 319 8320ft 218kts
23-Dec-17 22:00 32.946659 -117.477694 310 9568ft 233kts
23-Dec-17 22:01 32.989755 -117.541255 308 9967ft 252kts
23-Dec-17 22:02 33.032776 -117.606499 308 9991ft 248kts
23-Dec-17 22:03 33.075141 -117.671251 308 9996ft 246kts
23-Dec-17 22:04 33.117144 -117.735789 308 9998ft 246kts
23-Dec-17 22:05 33.159171 -117.800604 308 9997ft 246kts
23-Dec-17 22:06 33.201246 -117.864769 308 9999ft 245kts
23-Dec-17 22:07 33.243476 -117.928696 308 10006ft 245kts
23-Dec-17 22:08 33.290551 -117.987038 329 9874ft 243kts
23-Dec-17 22:09 33.348566 -118.022764 332 9200ft 240kts
23-Dec-17 22:10 33.408704 -118.059084 332 7631ft 241kts
23-Dec-17 22:11 33.468555 -118.095525 332 6138ft 237kts
23-Dec-17 22:12 33.523956 -118.129323 332 6012ft 221kts
23-Dec-17 22:13 33.582334 -118.164874 332 6006ft 251kts
23-Dec-17 22:14 33.645161 -118.203277 332 5998ft 253kts
23-Dec-17 22:15 33.707993 -118.241679 332 5993ft 253kts
23-Dec-17 22:16 33.771092 -118.280254 332 5986ft 254kts
23-Dec-17 22:17 33.833857 -118.318596 332 6042ft 253kts
23-Dec-17 22:18 33.896666 -118.356974 332 6062ft 253kts
23-Dec-17 22:19 33.959771 -118.395506 332 6060ft 254kts
23-Dec-17 22:20 34.022722 -118.434005 332 6068ft 254kts
23-Dec-17 22:21 34.083771 -118.471274 332 5687ft 206kts
23-Dec-17 22:22 34.131408 -118.500196 332 4670ft 187kts
23-Dec-17 22:23 34.176725 -118.527890 332 4065ft 177kts
23-Dec-17 22:24 34.220754 -118.554817 332 4058ft 176kts
23-Dec-17 22:25 34.264332 -118.581403 335 4062ft 175kts
23-Dec-17 22:26 34.276295 -118.549264 163 4061ft 161kts
23-Dec-17 22:27 34.240229 -118.570789 256 3815ft 194kts
23-Dec-17 22:28 34.237959 -118.624985 288 3456ft 136kts
23-Dec-17 22:29 34.257527 -118.665350 303 4011ft 154kts
23-Dec-17 22:30 34.285833 -118.711376 339 4069ft 184kts
23-Dec-17 22:31 34.321887 -118.687444 69 4073ft 152kts
23-Dec-17 22:32 34.333338 -118.637274 83 4080ft 157kts
23-Dec-17 22:33 34.328616 -118.584575 106 3917ft 159kts
23-Dec-17 22:34 34.294403 -118.550292 157 3160ft 157kts
23-Dec-17 22:35 34.260705 -118.514667 130 2088ft 163kts
23-Dec-17 22:36 34.229840 -118.492199 176 1095ft 134kts
23-Dec-17 22:37 34.201003 -118.489608 172 806ft 44kts
23-Dec-17 22:38 34.196731 -118.489641 258 806ft 0kts
23-Dec-17 22:39 34.198082 -118.490882 275 806ft 0kts
23-Dec-17 22:40 34.198082 -118.490882 275 806ft 0kts
23-Dec-17 22:41 34.198082 -118.490882 275 806ft 0kts

Navigation Log

Ident Type
Flight plan parsing failed, navigation log unavailable